createdAt,value
2022-08-20T00:02:15.067Z,21.83
2022-08-20T00:04:43.974Z,21.83
2022-08-20T00:07:14.011Z,21.82
2022-08-20T00:09:42.978Z,21.82
2022-08-20T00:12:13.928Z,21.83
2022-08-20T00:14:42.282Z,21.76
2022-08-20T00:17:10.407Z,21.54
2022-08-20T00:19:38.542Z,21.63
2022-08-20T00:22:06.931Z,21.64
2022-08-20T00:24:36.336Z,21.61
2022-08-20T00:27:04.646Z,21.46
2022-08-20T00:29:36.062Z,21.46
2022-08-20T00:32:05.142Z,21.31
2022-08-20T00:34:33.736Z,21.38
2022-08-20T00:37:02.886Z,21.17
2022-08-20T00:39:30.861Z,21.32
2022-08-20T00:42:00.472Z,21.34
2022-08-20T00:44:31.005Z,21.22
2022-08-20T00:46:59.120Z,21.37
2022-08-20T00:49:30.026Z,21.42
2022-08-20T00:52:02.267Z,21.36
2022-08-20T00:54:35.561Z,21.37
2022-08-20T00:57:11.967Z,21.32
2022-08-20T00:59:43.181Z,21.42
2022-08-20T01:02:14.908Z,21.40
2022-08-20T01:04:46.399Z,21.48
2022-08-20T01:07:14.589Z,21.54
2022-08-20T01:09:57.881Z,21.48
2022-08-20T01:12:30.718Z,21.54
2022-08-20T01:15:02.453Z,21.60
2022-08-20T01:17:36.469Z,21.62
2022-08-20T01:20:09.353Z,21.64
2022-08-20T01:23:02.486Z,21.57
2022-08-20T01:25:42.165Z,21.58
2022-08-20T01:28:11.850Z,21.51
2022-08-20T01:30:40.066Z,21.65
2022-08-20T01:33:08.346Z,21.64
2022-08-20T01:35:38.106Z,21.61
2022-08-20T01:38:06.864Z,21.56
2022-08-20T01:40:51.629Z,21.56
2022-08-20T01:43:19.768Z,21.58
2022-08-20T01:45:50.196Z,21.54
2022-08-20T01:48:19.732Z,21.53
2022-08-20T01:51:02.106Z,21.52
2022-08-20T01:53:34.378Z,21.37
2022-08-20T01:56:07.616Z,21.38
2022-08-20T01:58:39.247Z,21.45
2022-08-20T02:01:07.685Z,21.39
2022-08-20T02:03:39.716Z,21.51
2022-08-20T02:06:10.855Z,21.53
2022-08-20T02:08:38.784Z,21.57
2022-08-20T02:11:09.022Z,21.56
2022-08-20T02:13:38.492Z,21.55
2022-08-20T02:16:07.085Z,21.55
2022-08-20T02:18:35.029Z,21.52
2022-08-20T02:21:03.988Z,21.49
2022-08-20T02:23:31.893Z,21.46
2022-08-20T02:26:00.464Z,21.39
2022-08-20T02:28:30.357Z,21.44
2022-08-20T02:31:00.573Z,21.40
2022-08-20T02:33:28.605Z,21.32
2022-08-20T02:35:57.855Z,21.42
2022-08-20T02:38:26.032Z,21.45
2022-08-20T02:40:54.013Z,21.34
2022-08-20T02:43:21.962Z,21.39
2022-08-20T02:45:51.603Z,21.32
2022-08-20T02:48:23.393Z,21.44
2022-08-20T02:50:54.916Z,21.46
2022-08-20T02:53:24.135Z,21.42
2022-08-20T02:55:52.644Z,21.43
2022-08-20T02:58:21.336Z,21.31
2022-08-20T03:00:56.925Z,21.35
2022-08-20T03:03:25.505Z,21.51
2022-08-20T03:05:55.398Z,21.53
2022-08-20T03:08:24.208Z,21.53
2022-08-20T03:10:53.792Z,21.52
2022-08-20T03:13:22.640Z,21.42
2022-08-20T03:15:58.452Z,21.57
2022-08-20T03:18:31.042Z,21.44
2022-08-20T03:20:59.272Z,21.63
2022-08-20T03:23:27.228Z,21.61
2022-08-20T03:25:55.687Z,21.48
2022-08-20T03:28:23.814Z,21.58
2022-08-20T03:30:53.309Z,21.54
2022-08-20T03:33:22.064Z,21.60
2022-08-20T03:35:51.607Z,21.63
2022-08-20T03:38:33.212Z,21.65
2022-08-20T03:41:02.086Z,21.56
2022-08-20T03:43:31.275Z,21.70
2022-08-20T03:46:00.043Z,21.83
2022-08-20T03:48:29.235Z,21.80
2022-08-20T03:51:00.886Z,21.80
2022-08-20T03:53:31.969Z,21.83
2022-08-20T03:56:04.362Z,21.89
2022-08-20T03:58:34.905Z,21.85
2022-08-20T04:01:06.708Z,21.85
2022-08-20T04:03:35.404Z,21.84
2022-08-20T04:06:05.249Z,21.88
2022-08-20T04:08:33.208Z,21.85
2022-08-20T04:11:01.547Z,21.98
2022-08-20T04:13:33.524Z,22.02
2022-08-20T04:16:05.985Z,21.92
2022-08-20T04:18:39.162Z,22.01
2022-08-20T04:21:08.879Z,21.98
2022-08-20T04:23:36.730Z,22.15
2022-08-20T04:26:05.335Z,22.20
2022-08-20T04:28:33.981Z,21.95
2022-08-20T04:31:02.604Z,22.06
2022-08-20T04:33:35.220Z,22.02
2022-08-20T04:36:06.421Z,22.06
2022-08-20T04:38:49.674Z,22.05
2022-08-20T04:41:22.486Z,21.95
2022-08-20T04:43:53.152Z,21.93
2022-08-20T04:46:23.937Z,21.86
2022-08-20T04:48:51.979Z,21.77
2022-08-20T04:51:22.961Z,21.74
2022-08-20T04:53:54.264Z,21.72
2022-08-20T04:56:24.547Z,21.67
2022-08-20T04:58:54.798Z,21.60
2022-08-20T05:01:24.207Z,21.53
2022-08-20T05:03:55.025Z,21.57
2022-08-20T05:06:25.712Z,21.45
2022-08-20T05:08:55.972Z,21.40
2022-08-20T05:11:33.669Z,21.30
2022-08-20T05:14:08.066Z,21.30
2022-08-20T05:16:40.656Z,21.36
2022-08-20T05:19:10.740Z,21.34
2022-08-20T05:21:38.898Z,21.36
2022-08-20T05:24:17.595Z,21.34
2022-08-20T05:26:47.632Z,21.30
2022-08-20T05:29:16.260Z,21.24
2022-08-20T05:31:44.959Z,21.18
2022-08-20T05:34:13.840Z,21.03
2022-08-20T05:36:44.840Z,21.06
2022-08-20T05:39:17.038Z,21.08
2022-08-20T05:41:53.780Z,21.15
2022-08-20T05:44:22.564Z,21.08
2022-08-20T05:46:50.667Z,21.08
2022-08-20T05:49:22.431Z,21.02
2022-08-20T05:51:52.250Z,21.07
2022-08-20T05:54:21.973Z,21.00
2022-08-20T05:56:50.044Z,20.99
2022-08-20T05:59:23.555Z,20.89
2022-08-20T06:01:53.082Z,20.88
2022-08-20T06:04:26.855Z,20.83
2022-08-20T06:06:59.282Z,20.79
2022-08-20T06:09:32.679Z,20.68
2022-08-20T06:12:02.917Z,20.87
2022-08-20T06:14:32.098Z,20.77
2022-08-20T06:17:08.012Z,20.73
2022-08-20T06:19:37.551Z,20.83
2022-08-20T06:22:17.915Z,20.79
2022-08-20T06:24:50.182Z,20.79
2022-08-20T06:27:19.707Z,20.79
2022-08-20T06:29:48.328Z,20.74
2022-08-20T06:32:16.946Z,20.67
2022-08-20T06:34:49.660Z,20.86
2022-08-20T06:37:21.678Z,20.86
2022-08-20T06:39:51.534Z,20.86
2022-08-20T06:42:22.441Z,20.70
2022-08-20T06:44:51.331Z,20.87
2022-08-20T06:47:23.760Z,20.93
2022-08-20T06:49:51.951Z,20.81
2022-08-20T06:52:19.940Z,20.85
2022-08-20T06:54:59.624Z,20.99
2022-08-20T06:57:27.859Z,20.89
2022-08-20T06:59:58.591Z,21.11
2022-08-20T07:02:30.648Z,21.13
2022-08-20T07:05:00.158Z,21.22
2022-08-20T07:07:28.533Z,21.24
2022-08-20T07:10:02.635Z,21.13
2022-08-20T07:12:35.077Z,21.23
2022-08-20T07:15:03.491Z,21.27
2022-08-20T07:17:32.177Z,21.22
2022-08-20T07:20:00.567Z,21.06
2022-08-20T07:22:28.554Z,21.17
2022-08-20T07:24:56.587Z,21.12
2022-08-20T07:27:26.130Z,21.11
2022-08-20T07:30:15.075Z,21.17
2022-08-20T07:32:45.219Z,20.97
2022-08-20T07:35:22.448Z,21.07
2022-08-20T07:37:54.656Z,21.03
2022-08-20T07:40:29.170Z,21.04
2022-08-20T07:43:01.016Z,21.13
2022-08-20T07:45:49.726Z,20.92
2022-08-20T07:48:31.295Z,20.94
2022-08-20T07:51:03.445Z,21.19
2022-08-20T07:53:35.981Z,21.24
2022-08-20T07:56:08.181Z,21.30
2022-08-20T07:58:40.104Z,21.37
2022-08-20T08:01:08.539Z,21.34
2022-08-20T08:03:49.351Z,21.23
2022-08-20T08:06:29.647Z,21.12
2022-08-20T08:09:03.431Z,21.31
2022-08-20T08:11:34.818Z,21.21
2022-08-20T08:14:06.668Z,21.31
2022-08-20T08:16:39.609Z,21.34
2022-08-20T08:19:12.022Z,21.13
2022-08-20T08:21:42.850Z,21.21
2022-08-20T08:24:15.463Z,21.14
2022-08-20T08:26:45.448Z,20.93
2022-08-20T08:29:20.708Z,20.99
2022-08-20T08:31:49.066Z,21.13
2022-08-20T08:34:17.439Z,20.99
2022-08-20T08:36:45.590Z,21.12
2022-08-20T08:39:13.898Z,21.05
2022-08-20T08:41:47.402Z,21.01
2022-08-20T08:44:23.499Z,21.03
2022-08-20T08:46:56.357Z,21.22
2022-08-20T08:49:35.177Z,21.34
2022-08-20T08:52:12.523Z,21.31
2022-08-20T08:54:47.179Z,21.21
2022-08-20T08:57:15.725Z,21.22
2022-08-20T08:59:52.036Z,21.37
2022-08-20T09:02:32.171Z,21.34
2022-08-20T09:05:03.384Z,21.28
2022-08-20T09:07:34.875Z,21.19
2022-08-20T09:10:03.796Z,21.41
2022-08-20T09:12:33.210Z,21.28
2022-08-20T09:15:01.743Z,21.43
2022-08-20T09:17:31.242Z,21.34
2022-08-20T09:19:59.248Z,21.46
2022-08-20T09:22:27.494Z,21.38
2022-08-20T09:24:56.351Z,21.45
2022-08-20T09:27:24.419Z,21.38
2022-08-20T09:29:53.606Z,21.50
2022-08-20T09:32:24.716Z,21.42
2022-08-20T09:34:57.091Z,21.62
2022-08-20T09:37:27.011Z,21.36
2022-08-20T09:39:55.244Z,21.57
2022-08-20T09:42:25.107Z,21.56
2022-08-20T09:44:53.497Z,21.66
2022-08-20T09:47:22.359Z,21.70
2022-08-20T09:49:50.843Z,21.81
2022-08-20T09:52:23.861Z,21.79
2022-08-20T09:55:03.643Z,21.89
2022-08-20T09:57:33.135Z,21.97
2022-08-20T10:00:03.670Z,21.74
2022-08-20T10:02:32.000Z,21.79
2022-08-20T10:05:00.325Z,21.79
2022-08-20T10:07:29.777Z,22.15
2022-08-20T10:10:09.765Z,22.27
2022-08-20T10:12:37.936Z,22.17
2022-08-20T10:15:07.682Z,22.27
2022-08-20T10:17:38.996Z,22.32
2022-08-20T10:20:08.451Z,22.44
2022-08-20T10:22:40.737Z,22.40
2022-08-20T10:25:10.050Z,22.48
2022-08-20T10:27:38.627Z,22.34
2022-08-20T10:30:08.256Z,22.31
2022-08-20T10:32:36.448Z,22.36
2022-08-20T10:35:05.562Z,22.13
2022-08-20T10:37:35.115Z,22.31
2022-08-20T10:40:05.853Z,22.35
2022-08-20T10:42:40.441Z,22.10
2022-08-20T10:45:11.860Z,22.14
2022-08-20T10:47:40.091Z,22.16
2022-08-20T10:50:11.264Z,22.28
2022-08-20T10:52:39.308Z,22.33
2022-08-20T10:55:10.933Z,22.18
2022-08-20T10:57:43.536Z,22.17
2022-08-20T11:00:14.463Z,22.24
2022-08-20T11:02:42.534Z,22.24
2022-08-20T11:05:10.930Z,22.17
2022-08-20T11:07:50.624Z,22.20
2022-08-20T11:10:26.694Z,22.33
2022-08-20T11:12:56.668Z,22.28
2022-08-20T11:15:24.978Z,22.16
2022-08-20T11:17:53.326Z,22.09
2022-08-20T11:20:26.461Z,22.30
2022-08-20T11:22:55.375Z,22.41
2022-08-20T11:25:23.561Z,22.24
2022-08-20T11:27:54.316Z,22.19
2022-08-20T11:30:26.875Z,22.15
2022-08-20T11:32:55.984Z,22.31
2022-08-20T11:35:42.198Z,22.20
2022-08-20T11:38:13.394Z,22.29
2022-08-20T11:40:51.086Z,22.18
2022-08-20T11:43:23.183Z,22.31
2022-08-20T11:45:55.729Z,22.40
2022-08-20T11:48:23.991Z,22.51
2022-08-20T11:50:52.330Z,22.42
2022-08-20T11:53:20.654Z,22.52
2022-08-20T11:55:50.516Z,22.35
2022-08-20T11:58:18.930Z,22.55
2022-08-20T12:00:50.480Z,22.60
2022-08-20T12:03:18.653Z,22.48
2022-08-20T12:05:47.772Z,22.51
2022-08-20T12:08:26.866Z,22.44
2022-08-20T12:10:56.037Z,22.47
2022-08-20T12:13:29.992Z,22.43
2022-08-20T12:16:06.202Z,22.41
2022-08-20T12:18:34.545Z,22.33
2022-08-20T12:21:02.967Z,22.32
2022-08-20T12:23:31.212Z,22.10
2022-08-20T12:26:02.781Z,22.42
2022-08-20T12:28:31.509Z,22.29
2022-08-20T12:31:00.363Z,22.32
2022-08-20T12:33:33.088Z,22.33
2022-08-20T12:36:01.284Z,22.19
2022-08-20T12:38:29.443Z,22.15
2022-08-20T12:40:57.747Z,22.12
2022-08-20T12:43:25.728Z,22.37
2022-08-20T12:45:57.846Z,22.33
2022-08-20T12:48:41.288Z,22.36
2022-08-20T12:51:09.446Z,22.46
2022-08-20T12:53:37.671Z,22.48
2022-08-20T12:56:06.500Z,22.72
2022-08-20T12:58:35.376Z,22.77
2022-08-20T13:01:03.591Z,22.87
2022-08-20T13:03:33.436Z,22.92
2022-08-20T13:06:13.931Z,23.27
2022-08-20T13:08:42.628Z,23.25
2022-08-20T13:11:10.767Z,23.37
2022-08-20T13:13:38.990Z,23.41
2022-08-20T13:16:07.464Z,23.62
2022-08-20T13:18:37.013Z,23.90
2022-08-20T13:21:05.332Z,23.94
2022-08-20T13:23:34.321Z,24.10
2022-08-20T13:26:08.707Z,24.37
2022-08-20T13:28:36.901Z,24.77
2022-08-20T13:31:05.407Z,24.98
2022-08-20T13:33:33.758Z,25.41
2022-08-20T13:36:03.807Z,25.59
2022-08-20T13:38:32.595Z,25.66
2022-08-20T13:41:00.607Z,25.76
2022-08-20T13:43:28.466Z,26.20
2022-08-20T13:45:56.387Z,26.40
2022-08-20T13:48:27.832Z,26.03
2022-08-20T13:50:55.913Z,25.97
2022-08-20T13:53:25.362Z,26.17
2022-08-20T13:55:53.887Z,25.98
2022-08-20T13:58:23.137Z,25.78
2022-08-20T14:00:52.000Z,25.56
2022-08-20T14:03:25.764Z,25.33
2022-08-20T14:05:55.631Z,24.98
2022-08-20T14:08:25.837Z,24.87
2022-08-20T14:10:54.025Z,24.65
2022-08-20T14:13:23.937Z,24.65
2022-08-20T14:15:52.680Z,24.53
2022-08-20T14:18:21.034Z,24.36
2022-08-20T14:20:49.136Z,24.28
2022-08-20T14:23:17.721Z,24.22
2022-08-20T14:25:49.499Z,24.12
2022-08-20T14:28:20.090Z,24.07
2022-08-20T14:30:53.302Z,24.03
2022-08-20T14:33:22.314Z,23.96
2022-08-20T14:35:50.680Z,24.03
2022-08-20T14:38:18.735Z,23.84
2022-08-20T14:40:50.578Z,23.62
2022-08-20T14:43:19.101Z,23.68
2022-08-20T14:45:47.078Z,23.41
2022-08-20T14:48:15.319Z,23.63
2022-08-20T14:50:43.522Z,23.65
2022-08-20T14:53:11.849Z,24.62
2022-08-20T14:55:40.265Z,25.00
2022-08-20T14:58:10.559Z,25.07
2022-08-20T15:00:38.965Z,25.04
2022-08-20T15:03:07.081Z,25.36
2022-08-20T15:05:39.683Z,25.34
2022-08-20T15:08:10.568Z,24.91
2022-08-20T15:10:40.460Z,24.66
2022-08-20T15:13:10.439Z,24.97
2022-08-20T15:15:39.482Z,26.12
2022-08-20T15:18:08.045Z,26.54
2022-08-20T15:20:37.657Z,26.03
2022-08-20T15:23:07.754Z,25.72
2022-08-20T15:25:37.927Z,25.25
2022-08-20T15:28:08.887Z,24.52
2022-08-20T15:30:40.480Z,24.17
2022-08-20T15:33:09.498Z,23.70
2022-08-20T15:35:37.718Z,23.50
2022-08-20T15:38:05.989Z,23.37
2022-08-20T15:40:34.388Z,23.11
2022-08-20T15:43:08.926Z,23.15
2022-08-20T15:45:38.433Z,23.02
2022-08-20T15:48:13.080Z,22.92
2022-08-20T15:51:15.030Z,23.00
2022-08-20T15:53:53.535Z,22.91
2022-08-20T15:56:33.084Z,22.65
2022-08-20T15:59:13.344Z,22.55
2022-08-20T16:02:05.279Z,22.64
2022-08-20T16:04:54.437Z,22.51
2022-08-20T16:07:37.391Z,22.53
2022-08-20T16:10:15.909Z,22.20
2022-08-20T16:12:51.285Z,22.21
2022-08-20T16:15:24.272Z,22.12
2022-08-20T16:18:06.943Z,21.89
2022-08-20T16:20:40.745Z,21.87
2022-08-20T16:23:10.635Z,21.85
2022-08-20T16:25:52.880Z,21.75
2022-08-20T16:28:24.839Z,21.67
2022-08-20T16:31:00.772Z,21.68
2022-08-20T16:33:38.355Z,21.51
2022-08-20T16:36:12.093Z,21.57
2022-08-20T16:38:44.343Z,21.61
2022-08-20T16:41:19.483Z,21.66
2022-08-20T16:43:55.162Z,21.80
2022-08-20T16:46:27.241Z,21.83
2022-08-20T16:48:59.142Z,21.77
2022-08-20T16:51:40.912Z,21.94
2022-08-20T16:54:10.312Z,21.77
2022-08-20T16:56:41.556Z,21.86
2022-08-20T16:59:27.086Z,21.90
2022-08-20T17:02:10.137Z,21.85
2022-08-20T17:04:59.267Z,21.78
2022-08-20T17:07:33.437Z,21.68
2022-08-20T17:10:16.955Z,21.68
2022-08-20T17:12:52.521Z,21.54
2022-08-20T17:15:25.712Z,21.59
2022-08-20T17:17:55.910Z,21.45
2022-08-20T17:20:27.279Z,21.59
2022-08-20T17:23:12.249Z,21.39
2022-08-20T17:25:40.555Z,21.31
2022-08-20T17:28:17.217Z,21.30
2022-08-20T17:30:47.619Z,21.40
2022-08-20T17:33:32.756Z,21.33
2022-08-20T17:36:05.820Z,21.38
2022-08-20T17:38:38.057Z,21.13
2022-08-20T17:41:17.401Z,21.19
2022-08-20T17:43:46.677Z,21.15
2022-08-20T17:46:19.030Z,21.18
2022-08-20T17:48:49.323Z,21.06
2022-08-20T17:51:21.657Z,21.22
2022-08-20T17:53:52.856Z,21.19
2022-08-20T17:56:23.938Z,21.17
2022-08-20T17:58:58.163Z,21.15
2022-08-20T18:01:32.036Z,21.02
2022-08-20T18:04:00.206Z,21.11
2022-08-20T18:06:38.159Z,21.13
2022-08-20T18:09:14.707Z,21.00
2022-08-20T18:11:46.882Z,21.01
2022-08-20T18:14:35.375Z,20.94
2022-08-20T18:17:18.844Z,20.91
2022-08-20T18:20:21.978Z,20.82
2022-08-20T18:22:57.901Z,20.94
2022-08-20T18:25:36.580Z,20.77
2022-08-20T18:28:10.988Z,20.92
2022-08-20T18:30:49.091Z,20.72
2022-08-20T18:33:27.555Z,20.82
2022-08-20T18:36:07.373Z,20.90
2022-08-20T18:38:42.150Z,20.94
2022-08-20T18:41:28.145Z,21.11
2022-08-20T18:44:05.526Z,21.02
2022-08-20T18:46:37.777Z,20.87
2022-08-20T18:49:09.337Z,20.90
2022-08-20T18:51:42.741Z,21.07
2022-08-20T18:54:24.708Z,20.82
2022-08-20T18:57:04.380Z,20.83
2022-08-20T18:59:35.640Z,20.72
2022-08-20T19:02:15.794Z,20.38
2022-08-20T19:04:48.221Z,20.38
2022-08-20T19:07:21.851Z,20.02
2022-08-20T19:10:28.149Z,20.20
2022-08-20T19:13:24.322Z,20.19
2022-08-20T19:15:58.459Z,20.25
2022-08-20T19:18:33.653Z,20.13
2022-08-20T19:21:04.258Z,20.15
2022-08-20T19:23:39.628Z,20.10
2022-08-20T19:26:25.212Z,19.96
2022-08-20T19:28:58.312Z,19.98
2022-08-20T19:31:27.718Z,19.65
2022-08-20T19:34:15.009Z,19.77
2022-08-20T19:36:54.915Z,19.71
2022-08-20T19:39:25.607Z,19.29
2022-08-20T19:41:58.312Z,19.38
2022-08-20T19:44:38.644Z,19.29
2022-08-20T19:47:13.909Z,19.42
2022-08-20T19:49:55.231Z,19.23
2022-08-20T19:52:35.813Z,18.90
2022-08-20T19:55:04.414Z,18.88
2022-08-20T19:57:33.858Z,18.95
2022-08-20T20:00:12.452Z,18.98
2022-08-20T20:02:41.826Z,18.91
2022-08-20T20:05:21.047Z,18.72
2022-08-20T20:07:52.651Z,18.82
2022-08-20T20:10:32.906Z,18.70
2022-08-20T20:13:09.832Z,18.73
2022-08-20T20:15:39.191Z,18.45
2022-08-20T20:18:08.595Z,18.68
2022-08-20T20:20:55.065Z,18.68
2022-08-20T20:23:41.603Z,18.56
2022-08-20T20:26:20.026Z,18.38
2022-08-20T20:28:55.239Z,18.35
2022-08-20T20:31:30.477Z,18.35
2022-08-20T20:34:03.409Z,18.11
2022-08-20T20:36:36.482Z,18.21
2022-08-20T20:39:10.264Z,18.29
2022-08-20T20:41:54.254Z,18.33
2022-08-20T20:44:27.358Z,18.01
2022-08-20T20:47:00.687Z,18.20
2022-08-20T20:49:31.346Z,18.30
2022-08-20T20:52:02.770Z,18.28
2022-08-20T20:54:42.116Z,18.29
2022-08-20T20:57:36.344Z,18.02
2022-08-20T21:00:12.796Z,18.26
2022-08-20T21:02:41.201Z,18.16
2022-08-20T21:05:10.574Z,18.24
2022-08-20T21:07:50.176Z,18.14
2022-08-20T21:10:21.323Z,17.92
2022-08-20T21:12:52.893Z,18.16
2022-08-20T21:15:25.758Z,17.85
2022-08-20T21:17:54.166Z,18.02
2022-08-20T21:20:23.641Z,17.86
2022-08-20T21:22:52.094Z,17.99
2022-08-20T21:25:20.426Z,17.91
2022-08-20T21:27:50.368Z,17.88
2022-08-20T21:30:19.761Z,17.84
2022-08-20T21:32:49.289Z,17.79
2022-08-20T21:35:17.932Z,17.71
2022-08-20T21:37:45.979Z,17.57
2022-08-20T21:40:14.764Z,17.65
2022-08-20T21:42:46.420Z,17.49
2022-08-20T21:45:19.659Z,17.36
2022-08-20T21:47:49.943Z,17.45
2022-08-20T21:50:18.883Z,17.38
2022-08-20T21:52:55.056Z,17.32
2022-08-20T21:55:39.565Z,17.29
2022-08-20T21:58:10.482Z,17.27
2022-08-20T22:00:55.415Z,17.28
2022-08-20T22:03:27.337Z,17.26
2022-08-20T22:05:56.092Z,17.18
2022-08-20T22:08:28.495Z,17.15
2022-08-20T22:10:58.143Z,17.09
2022-08-20T22:13:28.331Z,16.87
2022-08-20T22:15:56.773Z,16.94
2022-08-20T22:18:26.513Z,16.79
2022-08-20T22:20:57.856Z,16.98
2022-08-20T22:23:26.485Z,16.69
2022-08-20T22:25:54.736Z,16.66
2022-08-20T22:28:23.250Z,16.91
2022-08-20T22:30:54.007Z,16.60
2022-08-20T22:33:25.640Z,16.85
2022-08-20T22:35:57.939Z,16.72
2022-08-20T22:38:26.832Z,16.66
2022-08-20T22:40:55.131Z,16.60
2022-08-20T22:43:24.550Z,16.65
2022-08-20T22:45:58.785Z,16.49
2022-08-20T22:48:27.142Z,16.46
2022-08-20T22:50:57.863Z,16.56
2022-08-20T22:53:28.796Z,16.46
2022-08-20T22:55:57.280Z,16.33
2022-08-20T22:58:30.996Z,16.50
2022-08-20T23:01:01.353Z,16.53
2022-08-20T23:03:39.638Z,16.52
2022-08-20T23:06:11.519Z,16.51
2022-08-20T23:08:40.546Z,16.19
2022-08-20T23:11:08.837Z,16.26
2022-08-20T23:13:37.135Z,16.30
2022-08-20T23:16:05.854Z,16.31
2022-08-20T23:18:33.947Z,16.24
2022-08-20T23:21:02.280Z,16.20
2022-08-20T23:23:32.146Z,16.09
2022-08-20T23:26:01.800Z,16.01
2022-08-20T23:28:30.058Z,16.18
2022-08-20T23:30:58.351Z,15.92
2022-08-20T23:33:26.629Z,16.00
2022-08-20T23:35:54.859Z,16.02
2022-08-20T23:38:23.373Z,16.12
2022-08-20T23:40:52.796Z,15.96
2022-08-20T23:43:20.964Z,16.23
2022-08-20T23:45:49.408Z,16.18
2022-08-20T23:48:17.713Z,16.20
2022-08-20T23:50:46.013Z,15.86
2022-08-20T23:53:14.843Z,16.11
2022-08-20T23:55:43.120Z,16.06
2022-08-20T23:58:12.763Z,16.11
